createdAt,value
2023-02-02T00:00:43.912Z,84.95
2023-02-02T00:03:13.873Z,93.78
2023-02-02T00:05:52.348Z,98.93
2023-02-02T00:10:52.439Z,100.95
2023-02-02T00:13:22.364Z,95.30
2023-02-02T00:15:52.043Z,96.43
2023-02-02T00:18:21.979Z,88.40
2023-02-02T00:20:51.986Z,91.75
2023-02-02T00:23:21.650Z,103.35
2023-02-02T00:25:52.958Z,99.93
2023-02-02T00:28:22.672Z,97.28
2023-02-02T00:30:52.433Z,94.03
2023-02-02T00:33:22.348Z,96.40
2023-02-02T00:35:54.950Z,91.25
2023-02-02T00:38:25.889Z,100.97
2023-02-02T00:40:55.607Z,97.80
2023-02-02T00:43:25.713Z,94.72
2023-02-02T00:45:55.919Z,98.28
2023-02-02T00:48:27.636Z,98.57
2023-02-02T00:50:57.691Z,94.68
2023-02-02T00:53:27.442Z,98.65
2023-02-02T00:55:57.264Z,93.18
2023-02-02T00:58:27.161Z,101.68
2023-02-02T01:00:57.001Z,97.90
2023-02-02T01:03:26.936Z,98.85
2023-02-02T01:05:56.700Z,97.60
2023-02-02T01:08:26.448Z,105.28
2023-02-02T01:10:56.150Z,94.15
2023-02-02T01:13:25.944Z,90.28
2023-02-02T01:15:59.694Z,98.13
2023-02-02T01:18:30.482Z,89.38
2023-02-02T01:21:02.727Z,97.32
2023-02-02T01:23:32.950Z,93.60
2023-02-02T01:26:04.673Z,92.18
2023-02-02T01:28:34.483Z,112.50
2023-02-02T01:31:10.149Z,99.60
2023-02-02T01:33:40.601Z,93.30
2023-02-02T01:36:15.688Z,93.32
2023-02-02T01:38:45.739Z,96.15
2023-02-02T01:41:18.497Z,95.00
2023-02-02T01:43:58.180Z,95.50
2023-02-02T01:46:32.676Z,98.15
2023-02-02T01:49:21.076Z,95.22
2023-02-02T01:51:57.357Z,96.75
2023-02-02T01:54:37.541Z,94.10
2023-02-02T01:57:17.659Z,101.38
2023-02-02T01:59:49.516Z,94.60
2023-02-02T02:02:19.882Z,103.35
2023-02-02T02:04:52.922Z,95.35
2023-02-02T02:07:22.718Z,99.85
2023-02-02T02:09:52.527Z,93.53
2023-02-02T02:12:22.528Z,102.35
2023-02-02T02:15:13.278Z,97.72
2023-02-02T02:18:15.949Z,92.93
2023-02-02T02:21:44.363Z,115.82
2023-02-02T02:25:09.299Z,93.47
2023-02-02T02:28:15.537Z,91.00
2023-02-02T02:31:24.523Z,92.82
2023-02-02T02:34:20.981Z,95.03
2023-02-02T02:36:59.067Z,91.18
2023-02-02T02:39:52.563Z,96.70
2023-02-02T02:42:27.901Z,91.25
2023-02-02T02:45:02.120Z,95.38
2023-02-02T02:47:33.791Z,103.75
2023-02-02T02:50:03.730Z,96.43
2023-02-02T02:52:34.654Z,91.13
2023-02-02T02:55:07.214Z,93.55
2023-02-02T02:57:56.448Z,96.70
2023-02-02T03:00:50.764Z,90.00
2023-02-02T03:03:55.264Z,94.40
2023-02-02T03:06:44.674Z,95.10
2023-02-02T03:09:23.563Z,87.68
2023-02-02T03:11:53.273Z,93.40
2023-02-02T03:14:23.192Z,88.90
2023-02-02T03:16:54.928Z,89.75
2023-02-02T03:19:24.958Z,75.32
2023-02-02T03:21:54.688Z,87.53
2023-02-02T03:24:24.657Z,80.05
2023-02-02T03:26:54.712Z,83.70
2023-02-02T03:29:24.671Z,81.20
2023-02-02T03:31:54.746Z,85.53
2023-02-02T03:34:24.501Z,81.78
2023-02-02T03:36:55.138Z,77.53
2023-02-02T03:39:25.108Z,85.93
2023-02-02T03:41:55.045Z,79.15
2023-02-02T03:44:24.864Z,89.20
2023-02-02T03:46:58.004Z,76.55
2023-02-02T03:49:28.030Z,87.65
2023-02-02T03:51:57.935Z,79.72
2023-02-02T03:54:27.797Z,76.78
2023-02-02T03:56:57.698Z,77.03
2023-02-02T03:59:27.783Z,76.53
2023-02-02T04:01:57.669Z,78.60
2023-02-02T04:04:27.518Z,77.40
2023-02-02T04:06:57.771Z,78.82
2023-02-02T04:09:28.199Z,73.93
2023-02-02T04:11:57.877Z,81.18
2023-02-02T04:14:27.726Z,78.88
2023-02-02T04:16:57.649Z,76.10
2023-02-02T04:19:27.390Z,72.03
2023-02-02T04:21:57.232Z,73.82
2023-02-02T04:24:26.895Z,82.35
2023-02-02T04:26:56.624Z,75.63
2023-02-02T04:29:28.025Z,75.28
2023-02-02T04:31:57.987Z,69.93
2023-02-02T04:34:27.798Z,64.70
2023-02-02T04:36:58.239Z,77.88
2023-02-02T04:39:28.147Z,72.97
2023-02-02T04:41:58.020Z,71.40
2023-02-02T04:44:27.875Z,67.55
2023-02-02T04:46:57.713Z,68.95
2023-02-02T04:49:27.486Z,68.10
2023-02-02T04:51:57.723Z,69.97
2023-02-02T04:54:27.309Z,71.22
2023-02-02T04:56:57.242Z,65.13
2023-02-02T04:59:27.201Z,67.70
2023-02-02T05:01:56.867Z,62.88
2023-02-02T05:04:26.696Z,73.93
2023-02-02T05:06:56.764Z,62.10
2023-02-02T05:09:26.613Z,69.80
2023-02-02T05:11:56.585Z,64.82
2023-02-02T05:14:26.522Z,69.65
2023-02-02T05:16:56.418Z,61.53
2023-02-02T05:19:26.448Z,66.43
2023-02-02T05:21:56.651Z,67.28
2023-02-02T05:24:26.451Z,63.20
2023-02-02T05:27:00.263Z,72.55
2023-02-02T05:29:31.612Z,68.45
2023-02-02T05:32:01.540Z,68.55
2023-02-02T05:34:31.487Z,61.33
2023-02-02T05:37:01.952Z,58.58
2023-02-02T05:39:31.902Z,56.00
2023-02-02T05:42:01.715Z,53.50
2023-02-02T05:44:31.467Z,53.15
2023-02-02T05:47:01.209Z,63.90
2023-02-02T05:49:31.189Z,53.33
2023-02-02T05:52:01.457Z,57.60
2023-02-02T05:54:31.351Z,56.25
2023-02-02T05:57:03.127Z,57.30
2023-02-02T05:59:32.964Z,55.53
2023-02-02T06:02:02.810Z,50.30
2023-02-02T06:04:32.870Z,63.53
2023-02-02T06:07:02.711Z,55.08
2023-02-02T06:09:32.521Z,51.53
2023-02-02T06:12:02.258Z,65.03
2023-02-02T06:14:32.142Z,52.35
2023-02-02T06:17:02.024Z,60.33
2023-02-02T06:19:31.830Z,61.65
2023-02-02T06:22:01.580Z,63.25
2023-02-02T06:24:31.402Z,61.25
2023-02-02T06:27:01.333Z,64.43
2023-02-02T06:29:31.206Z,58.13
2023-02-02T06:32:01.171Z,73.75
2023-02-02T06:34:31.234Z,63.72
2023-02-02T06:37:01.089Z,61.80
2023-02-02T06:39:31.333Z,64.00
2023-02-02T06:42:11.869Z,65.15
2023-02-02T06:44:49.973Z,55.83
2023-02-02T06:47:19.852Z,59.17
2023-02-02T06:49:49.711Z,59.58
2023-02-02T06:52:19.791Z,48.22
2023-02-02T06:54:49.743Z,49.38
2023-02-02T06:57:19.467Z,54.70
2023-02-02T06:59:49.246Z,61.05
2023-02-02T07:02:19.202Z,54.75
2023-02-02T07:04:48.941Z,55.42
2023-02-02T07:07:18.866Z,55.60
2023-02-02T07:09:48.807Z,49.90
2023-02-02T07:12:29.170Z,46.08
2023-02-02T07:15:01.359Z,47.20
2023-02-02T07:17:31.363Z,53.60
2023-02-02T07:20:01.220Z,44.13
2023-02-02T07:22:31.054Z,50.65
2023-02-02T07:25:00.881Z,45.63
2023-02-02T07:27:30.821Z,49.75
2023-02-02T07:30:00.921Z,46.40
2023-02-02T07:32:30.735Z,42.38
2023-02-02T07:35:00.587Z,41.63
2023-02-02T07:37:30.461Z,48.47
2023-02-02T07:40:00.810Z,51.30
2023-02-02T07:42:30.613Z,41.42
2023-02-02T07:45:27.058Z,43.15
2023-02-02T07:47:51.260Z,53.78
2023-02-02T07:50:21.409Z,48.67
2023-02-02T07:52:51.364Z,45.58
2023-02-02T07:55:21.961Z,46.42
2023-02-02T07:57:53.899Z,38.92
2023-02-02T08:00:24.631Z,43.72
2023-02-02T08:02:55.173Z,41.70
2023-02-02T08:05:25.404Z,38.05
2023-02-02T08:07:55.635Z,36.65
2023-02-02T08:10:25.468Z,45.60
2023-02-02T08:12:55.235Z,44.25
2023-02-02T08:15:25.507Z,44.55
2023-02-02T08:17:55.499Z,42.80
2023-02-02T08:20:25.223Z,44.70
2023-02-02T08:22:55.094Z,44.13
2023-02-02T08:25:25.067Z,40.50
2023-02-02T08:28:03.215Z,44.33
2023-02-02T08:30:33.050Z,43.70
2023-02-02T08:33:02.816Z,42.03
2023-02-02T08:35:32.819Z,35.00
2023-02-02T08:38:07.062Z,37.70
2023-02-02T08:40:37.477Z,42.50
2023-02-02T08:43:08.471Z,49.72
2023-02-02T08:46:03.983Z,38.15
2023-02-02T08:48:34.451Z,39.17
2023-02-02T08:51:05.662Z,44.30
2023-02-02T08:53:36.608Z,37.75
2023-02-02T08:56:18.114Z,39.95
2023-02-02T08:58:53.390Z,60.95
2023-02-02T09:01:30.078Z,45.08
2023-02-02T09:04:04.353Z,45.17
2023-02-02T09:06:40.065Z,45.28
2023-02-02T09:09:13.120Z,44.35
2023-02-02T09:11:43.979Z,38.92
2023-02-02T09:14:15.705Z,44.38
2023-02-02T09:16:45.637Z,41.17
2023-02-02T09:19:15.583Z,41.33
2023-02-02T09:21:45.642Z,42.28
2023-02-02T09:24:16.538Z,39.00
2023-02-02T09:26:47.285Z,39.13
2023-02-02T09:29:23.029Z,50.95
2023-02-02T09:31:52.954Z,43.88
2023-02-02T09:34:22.867Z,38.92
2023-02-02T09:36:53.587Z,44.45
2023-02-02T09:39:23.438Z,35.95
2023-02-02T09:42:22.863Z,38.75
2023-02-02T09:45:01.606Z,41.70
2023-02-02T09:47:54.016Z,43.03
2023-02-02T09:50:45.619Z,44.92
2023-02-02T09:53:53.016Z,48.85
2023-02-02T09:56:40.344Z,46.55
2023-02-02T09:59:21.826Z,46.08
2023-02-02T10:01:58.219Z,45.40
2023-02-02T10:04:41.144Z,40.97
2023-02-02T10:07:21.060Z,47.63
2023-02-02T10:10:05.138Z,55.00
2023-02-02T10:12:49.449Z,51.22
2023-02-02T10:15:45.031Z,61.92
2023-02-02T10:18:30.482Z,60.45
2023-02-02T10:21:03.572Z,58.22
2023-02-02T10:23:43.387Z,54.05
2023-02-02T10:26:40.273Z,45.90
2023-02-02T10:29:49.594Z,47.30
2023-02-02T10:32:49.193Z,50.55
2023-02-02T10:35:42.077Z,50.90
2023-02-02T10:38:46.655Z,43.03
2023-02-02T10:41:45.654Z,45.28
2023-02-02T10:44:45.296Z,49.67
2023-02-02T10:47:25.239Z,47.42
2023-02-02T10:50:19.711Z,53.20
2023-02-02T10:53:02.414Z,45.17
2023-02-02T10:55:58.370Z,60.15
2023-02-02T10:58:41.273Z,54.58
2023-02-02T11:01:13.277Z,51.45
2023-02-02T11:03:43.105Z,51.53
2023-02-02T11:06:36.663Z,56.88
2023-02-02T11:09:06.771Z,57.17
2023-02-02T11:11:43.149Z,54.92
2023-02-02T11:14:45.134Z,58.17
2023-02-02T11:17:31.841Z,53.67
2023-02-02T11:20:01.852Z,51.38
2023-02-02T11:22:37.744Z,70.82
2023-02-02T11:25:25.720Z,59.50
2023-02-02T11:27:55.894Z,64.88
2023-02-02T11:30:37.207Z,56.47
2023-02-02T11:33:37.986Z,56.15
2023-02-02T11:36:22.115Z,55.85
2023-02-02T11:39:11.457Z,59.83
2023-02-02T11:41:41.388Z,54.92
2023-02-02T11:44:27.545Z,61.00
2023-02-02T11:46:59.229Z,59.58
2023-02-02T11:49:29.296Z,59.22
2023-02-02T11:52:02.881Z,65.10
2023-02-02T11:54:35.751Z,69.68
2023-02-02T11:57:12.444Z,64.75
2023-02-02T11:59:47.455Z,64.05
2023-02-02T12:02:34.209Z,62.40
2023-02-02T12:05:39.201Z,58.65
2023-02-02T12:08:14.382Z,58.63
2023-02-02T12:11:04.927Z,67.70
2023-02-02T12:13:53.899Z,61.20
2023-02-02T12:16:57.390Z,66.05
2023-02-02T12:20:06.403Z,59.65
2023-02-02T12:23:03.220Z,63.03
2023-02-02T12:26:00.858Z,66.63
2023-02-02T12:29:06.255Z,74.03
2023-02-02T12:32:11.770Z,67.60
2023-02-02T12:35:04.056Z,73.43
2023-02-02T12:37:58.299Z,64.60
2023-02-02T12:40:54.142Z,61.53
2023-02-02T12:43:48.359Z,74.93
2023-02-02T12:46:34.546Z,63.00
2023-02-02T12:49:36.391Z,74.10
2023-02-02T12:52:39.427Z,70.40
2023-02-02T12:55:39.847Z,68.50
2023-02-02T12:58:41.539Z,67.03
2023-02-02T13:01:42.271Z,72.32
2023-02-02T13:04:51.399Z,68.05
2023-02-02T13:07:34.953Z,79.18
2023-02-02T13:10:34.153Z,79.97
2023-02-02T13:13:21.701Z,65.55
2023-02-02T13:15:57.467Z,70.60
2023-02-02T13:18:34.189Z,72.43
2023-02-02T13:21:08.493Z,76.03
2023-02-02T13:23:44.759Z,76.55
2023-02-02T13:26:27.789Z,72.10
2023-02-02T13:29:47.431Z,79.15
2023-02-02T13:32:38.308Z,69.57
2023-02-02T13:35:33.749Z,73.10
2023-02-02T13:38:36.611Z,78.15
2023-02-02T13:41:11.111Z,69.60
2023-02-02T13:44:14.971Z,81.30
2023-02-02T13:46:57.494Z,83.47
